Time;durP1;ratioP1;P1;durP2;ratioP2;P2;SDS_P1;SDS_P2;PMS_P1;PMS_P2;Temp;Humidity;BMP_temperature;BMP_pressure;BME280_temperature;BME280_humidity;BME280_pressure;Samples;Min_cycle;Max_cycle;Signal;HPM_P1;HPM_P2
2022/03/25 00:00:32;;;;;;;5.60;5.00;;;18.20;44.90;;;;;;5077624;28;20178;-10
2022/03/25 00:02:57;;;;;;;4.80;4.30;;;18.20;44.80;;;;;;5063422;28;20490;-11
2022/03/25 00:05:23;;;;;;;5.20;4.70;;;18.20;44.90;;;;;;5056887;28;20563;-11
2022/03/25 00:07:49;;;;;;;5.80;4.67;;;18.20;44.80;;;;;;5056713;28;20180;-11
2022/03/25 00:10:15;;;;;;;5.30;4.80;;;18.20;44.90;;;;;;5056543;28;20436;-11
2022/03/25 00:12:41;;;;;;;6.63;4.70;;;18.20;44.90;;;;;;5057133;28;20182;-10
2022/03/25 00:15:07;;;;;;;4.77;4.27;;;18.10;44.80;;;;;;5057056;28;20168;-11
2022/03/25 00:17:33;;;;;;;5.77;4.27;;;18.10;44.90;;;;;;5056325;28;20175;-10
2022/03/25 00:19:59;;;;;;;4.87;4.37;;;18.10;44.80;;;;;;5056877;28;20170;-11
2022/03/25 00:22:25;;;;;;;5.23;4.30;;;18.10;44.90;;;;;;5056351;28;20211;-10
2022/03/25 00:24:50;;;;;;;5.57;4.40;;;18.10;44.80;;;;;;5057234;28;20187;-10
2022/03/25 00:27:17;;;;;;;5.80;5.20;;;18.10;44.90;;;;;;5056662;28;20164;-11
2022/03/25 00:29:44;;;;;;;5.03;4.40;;;18.10;44.90;;;;;;5038726;28;20171;-11
2022/03/25 00:32:10;;;;;;;5.10;4.60;;;18.10;44.90;;;;;;5056470;28;20210;-10
2022/03/25 00:34:36;;;;;;;5.30;4.80;;;18.10;44.90;;;;;;5056358;28;20217;-11
2022/03/25 00:37:01;;;;;;;4.90;4.43;;;18.10;44.80;;;;;;5039591;28;20720;-11
2022/03/25 00:39:28;;;;;;;5.53;4.87;;;18.10;44.80;;;;;;5039377;28;20174;-11
2022/03/25 00:41:53;;;;;;;5.57;4.77;;;18.10;44.90;;;;;;5056916;28;20485;-11
2022/03/25 00:44:19;;;;;;;5.20;4.70;;;18.10;44.90;;;;;;5057030;28;20632;-11
2022/03/25 00:46:45;;;;;;;5.47;4.57;;;18.00;44.90;;;;;;5056556;28;20151;-11
2022/03/25 00:49:11;;;;;;;5.20;4.70;;;18.00;44.90;;;;;;5056226;28;20167;-11
2022/03/25 00:51:37;;;;;;;5.27;4.70;;;18.00;44.90;;;;;;5055825;28;20160;-11
2022/03/25 00:54:03;;;;;;;5.43;4.60;;;18.00;44.90;;;;;;5056138;28;20167;-11
2022/03/25 00:56:29;;;;;;;5.07;4.57;;;18.00;44.90;;;;;;5056740;28;20625;-11
2022/03/25 00:58:55;;;;;;;5.07;4.30;;;18.00;44.90;;;;;;5056143;28;20259;-10
2022/03/25 01:01:21;;;;;;;5.30;4.73;;;18.00;44.80;;;;;;5042761;28;20282;-11
2022/03/25 01:03:46;;;;;;;6.20;4.60;;;18.00;44.90;;;;;;5060683;28;20544;-11
2022/03/25 01:06:12;;;;;;;5.13;4.63;;;18.00;44.90;;;;;;5061006;28;20191;-11
2022/03/25 01:08:38;;;;;;;4.47;4.07;;;18.00;44.80;;;;;;5060546;28;20559;-10
2022/03/25 01:11:05;;;;;;;5.17;4.40;;;18.00;44.80;;;;;;5060408;28;20184;-11
2022/03/25 01:13:33;;;;;;;5.63;4.67;;;18.00;44.80;;;;;;5042559;28;20176;-11
2022/03/25 01:16:02;;;;;;;5.00;4.50;;;18.00;44.90;;;;;;5059863;28;20224;-10
2022/03/25 01:18:28;;;;;;;5.43;4.37;;;18.00;44.80;;;;;;5059737;28;20163;-11
2022/03/25 01:20:54;;;;;;;5.70;4.43;;;18.00;44.90;;;;;;5060046;28;20198;-10
2022/03/25 01:23:21;;;;;;;4.90;4.40;;;17.90;44.80;;;;;;5060333;28;20543;-11
2022/03/25 01:25:49;;;;;;;5.23;4.67;;;18.00;44.80;;;;;;5060162;28;20147;-11
2022/03/25 01:28:15;;;;;;;4.93;4.50;;;17.90;44.70;;;;;;5060728;28;20218;-10
2022/03/25 01:30:41;;;;;;;4.60;4.20;;;17.90;44.70;;;;;;5060579;28;20172;-10
2022/03/25 01:33:07;;;;;;;4.63;4.23;;;17.90;44.70;;;;;;5060054;28;20206;-11
2022/03/25 01:35:33;;;;;;;4.70;4.30;;;17.90;44.70;;;;;;5060101;28;20665;-10
2022/03/25 01:37:59;;;;;;;5.67;4.50;;;17.90;44.70;;;;;;5059797;28;20676;-10
2022/03/25 01:40:24;;;;;;;5.90;4.70;;;17.90;44.70;;;;;;5059566;28;20259;-10
2022/03/25 01:42:50;;;;;;;6.33;4.50;;;17.90;44.70;;;;;;5059686;28;20190;-10
2022/03/25 01:45:32;;;;;;;5.60;4.67;;;17.90;44.70;;;;;;5059604;28;20264;-11
2022/03/25 01:47:59;;;;;;;4.50;4.10;;;17.90;44.70;;;;;;5059940;28;20435;-10
2022/03/25 01:50:25;;;;;;;4.50;4.10;;;17.90;44.70;;;;;;5059892;28;20163;-10
2022/03/25 01:52:53;;;;;;;5.87;4.73;;;17.90;44.70;;;;;;5059705;28;20179;-11
2022/03/25 01:55:28;;;;;;;4.93;4.40;;;17.90;44.60;;;;;;5047404;28;20248;-10
2022/03/25 01:57:58;;;;;;;5.13;4.37;;;17.90;44.60;;;;;;5057152;28;20171;-11
2022/03/25 02:00:28;;;;;;;4.80;4.37;;;17.90;44.60;;;;;;5060051;28;20171;-10
2022/03/25 02:02:54;;;;;;;5.43;4.30;;;17.90;44.60;;;;;;5059456;28;20180;-10
2022/03/25 02:05:20;;;;;;;4.27;3.87;;;17.90;44.60;;;;;;5059631;28;20152;-11
2022/03/25 02:07:46;;;;;;;4.80;4.30;;;17.90;44.60;;;;;;5059174;28;20259;-11
2022/03/25 02:10:12;;;;;;;5.30;4.53;;;18.00;44.60;;;;;;5041922;28;20168;-11
2022/03/25 02:12:40;;;;;;;4.60;4.20;;;18.00;44.50;;;;;;5041591;28;20198;-11
2022/03/25 02:15:08;;;;;;;5.13;4.63;;;18.00;44.50;;;;;;5059291;28;20281;-10
2022/03/25 02:17:34;;;;;;;4.70;4.13;;;18.00;44.50;;;;;;5042369;28;20174;-11
2022/03/25 02:19:59;;;;;;;6.27;4.47;;;18.00;44.50;;;;;;5059075;28;20184;-11
2022/03/25 02:22:25;;;;;;;4.87;4.37;;;18.00;44.50;;;;;;5058985;28;20240;-11
2022/03/25 02:24:51;;;;;;;4.43;4.03;;;18.00;44.40;;;;;;5041648;28;20179;-11
2022/03/25 02:27:17;;;;;;;4.53;4.13;;;18.00;44.40;;;;;;5059537;28;20254;-11
2022/03/25 02:29:44;;;;;;;4.87;4.20;;;18.10;44.40;;;;;;5059225;28;20162;-10
2022/03/25 02:32:10;;;;;;;5.80;4.27;;;18.10;44.40;;;;;;5041011;28;20235;-10
2022/03/25 02:34:37;;;;;;;5.10;4.33;;;18.10;44.40;;;;;;5058976;28;20468;-10
2022/03/25 02:37:36;;;;;;;4.90;4.07;;;18.10;44.40;;;;;;5059094;28;20151;-10
2022/03/25 02:40:03;;;;;;;5.00;4.40;;;18.10;44.30;;;;;;5041227;28;20187;-10
2022/03/25 02:42:28;;;;;;;5.03;4.40;;;18.10;44.40;;;;;;5057903;28;20182;-11
2022/03/25 02:44:54;;;;;;;4.60;4.20;;;18.10;44.30;;;;;;5059074;28;20264;-10
2022/03/25 02:47:27;;;;;;;5.00;4.50;;;18.10;44.30;;;;;;5058622;28;20714;-10
2022/03/25 02:49:53;;;;;;;5.50;4.33;;;18.10;44.30;;;;;;5058353;28;20168;-10
2022/03/25 02:52:19;;;;;;;4.27;3.87;;;18.10;44.30;;;;;;5040705;28;20508;-11
2022/03/25 02:54:44;;;;;;;5.80;4.40;;;18.10;44.30;;;;;;5057826;28;20165;-11
2022/03/25 02:57:10;;;;;;;4.43;4.03;;;18.10;44.30;;;;;;5058270;28;20178;-10
2022/03/25 02:59:36;;;;;;;5.27;4.77;;;18.10;44.20;;;;;;5041438;28;20472;-10
2022/03/25 03:02:02;;;;;;;4.67;4.17;;;18.10;44.20;;;;;;5058258;28;20203;-10
2022/03/25 03:04:28;;;;;;;4.97;4.40;;;18.10;44.20;;;;;;5058381;28;20628;-11
2022/03/25 03:06:57;;;;;;;4.97;4.47;;;18.10;44.20;;;;;;5057978;28;20243;-11
2022/03/25 03:09:23;;;;;;;5.50;4.37;;;18.10;44.10;;;;;;5058486;28;20168;-11
2022/03/25 03:11:48;;;;;;;5.77;4.50;;;18.10;44.10;;;;;;5058480;28;20191;-11
2022/03/25 03:14:14;;;;;;;5.03;4.43;;;18.10;44.10;;;;;;5058257;28;20185;-10
2022/03/25 03:16:41;;;;;;;5.40;4.43;;;18.10;44.10;;;;;;5040503;28;20183;-10
2022/03/25 03:19:06;;;;;;;5.20;4.33;;;18.10;44.10;;;;;;5058327;28;20535;-10
2022/03/25 03:21:32;;;;;;;4.73;4.23;;;18.10;44.10;;;;;;5057964;28;20157;-11
2022/03/25 03:23:58;;;;;;;4.40;4.00;;;18.10;44.10;;;;;;5057235;28;20227;-11
2022/03/25 03:26:25;;;;;;;4.83;4.37;;;18.10;44.10;;;;;;5040224;28;20468;-10
2022/03/25 03:28:51;;;;;;;5.13;4.50;;;18.10;44.00;;;;;;5039950;28;20171;-10
2022/03/25 03:31:16;;;;;;;4.80;4.30;;;18.10;44.00;;;;;;5057744;28;20156;-10
2022/03/25 03:33:42;;;;;;;4.80;4.10;;;18.10;44.00;;;;;;5057204;28;20631;-11
2022/03/25 03:36:08;;;;;;;4.67;4.17;;;18.10;44.00;;;;;;5057799;28;20160;-11
2022/03/25 03:38:34;;;;;;;4.67;4.20;;;18.00;44.00;;;;;;5040433;28;20292;-11
2022/03/25 03:41:00;;;;;;;4.60;4.20;;;18.00;44.00;;;;;;5057837;28;20161;-10
2022/03/25 03:43:26;;;;;;;4.80;4.30;;;17.90;44.10;;;;;;5040591;28;20203;-11
2022/03/25 03:45:51;;;;;;;4.67;4.10;;;17.90;44.10;;;;;;5057975;28;20175;-11
2022/03/25 03:48:17;;;;;;;4.90;4.40;;;17.90;44.20;;;;;;5040123;28;20175;-11
2022/03/25 03:50:42;;;;;;;4.53;4.13;;;17.80;44.20;;;;;;5057834;28;20252;-10
2022/03/25 03:53:09;;;;;;;5.10;4.43;;;17.80;44.20;;;;;;5056803;28;20174;-11
2022/03/25 03:55:35;;;;;;;5.47;4.67;;;17.70;44.20;;;;;;5058024;28;20284;-10
2022/03/25 03:58:01;;;;;;;4.80;4.30;;;17.70;44.20;;;;;;5039816;28;20190;-11
2022/03/25 04:00:26;;;;;;;5.60;4.27;;;17.70;44.20;;;;;;5040483;28;20177;-10
2022/03/25 04:02:54;;;;;;;4.50;4.10;;;17.60;44.30;;;;;;5039605;28;20511;-10
2022/03/25 04:05:20;;;;;;;4.63;4.23;;;17.60;44.30;;;;;;5057437;28;20174;-10
2022/03/25 04:07:47;;;;;;;4.53;4.10;;;17.70;44.20;;;;;;5056169;28;20581;-11
2022/03/25 04:10:15;;;;;;;4.63;4.23;;;18.00;44.00;;;;;;5056409;28;20165;-10
2022/03/25 04:12:41;;;;;;;4.67;4.20;;;19.70;42.70;;;;;;5055634;28;20191;-10
2022/03/25 04:15:10;;;;;;;4.20;3.80;;;21.20;41.00;;;;;;5057237;28;20560;-10
2022/03/25 04:17:40;;;;;;;4.67;4.23;;;22.20;39.70;;;;;;5057613;28;20182;-10
2022/03/25 04:20:07;;;;;;;6.07;4.30;;;23.10;38.70;;;;;;5056893;28;20165;-10
2022/03/25 04:22:33;;;;;;;4.80;4.30;;;23.70;38.10;;;;;;5056758;28;20174;-11
2022/03/25 04:24:59;;;;;;;5.20;4.70;;;23.90;37.70;;;;;;5039589;28;20185;-11
2022/03/25 04:27:25;;;;;;;4.87;4.37;;;23.90;37.60;;;;;;5039908;28;20264;-11
2022/03/25 04:29:51;;;;;;;5.17;4.30;;;23.80;37.60;;;;;;5056934;28;20249;-11
2022/03/25 04:32:17;;;;;;;4.83;4.27;;;23.60;37.70;;;;;;5057064;28;20175;-11
2022/03/25 04:34:43;;;;;;;5.13;4.63;;;23.40;37.90;;;;;;5040874;28;20235;-11
2022/03/25 04:37:09;;;;;;;4.90;4.50;;;23.20;38.10;;;;;;5043723;28;20205;-11
2022/03/25 04:39:35;;;;;;;4.80;4.40;;;22.90;38.30;;;;;;5043712;28;20169;-11
2022/03/25 04:42:01;;;;;;;4.77;4.37;;;22.70;38.50;;;;;;5059909;28;20255;-11
2022/03/25 04:44:27;;;;;;;5.30;4.80;;;22.40;38.70;;;;;;5061069;28;20300;-11
2022/03/25 04:46:55;;;;;;;5.30;4.63;;;22.10;38.90;;;;;;5060614;28;20199;-11
2022/03/25 04:49:21;;;;;;;4.83;4.37;;;21.90;39.20;;;;;;5043153;28;20226;-11
2022/03/25 04:51:46;;;;;;;4.57;4.17;;;21.60;39.40;;;;;;5060648;28;20176;-11
2022/03/25 04:54:13;;;;;;;4.87;4.37;;;21.40;39.60;;;;;;5060469;28;20172;-11
2022/03/25 04:56:38;;;;;;;4.67;4.17;;;21.20;39.80;;;;;;5061026;28;20234;-11
2022/03/25 04:59:04;;;;;;;4.53;4.07;;;20.90;40.00;;;;;;5060262;28;20177;-11
2022/03/25 05:01:30;;;;;;;5.10;4.60;;;20.70;40.30;;;;;;5060817;28;20176;-11
2022/03/25 05:03:57;;;;;;;5.00;4.50;;;20.50;40.50;;;;;;5060450;28;20481;-11
2022/03/25 05:06:22;;;;;;;4.90;4.50;;;20.30;40.70;;;;;;5043084;28;20267;-11
2022/03/25 05:08:48;;;;;;;5.63;4.23;;;20.10;40.90;;;;;;5059809;28;20264;-11
2022/03/25 05:11:13;;;;;;;5.00;4.47;;;19.90;41.10;;;;;;5042754;28;20618;-11
2022/03/25 05:13:39;;;;;;;4.73;4.23;;;19.70;41.30;;;;;;5042754;28;20592;-11
2022/03/25 05:16:05;;;;;;;4.93;4.47;;;19.50;41.50;;;;;;5059906;28;20169;-11
2022/03/25 05:18:40;;;;;;;4.90;4.40;;;19.30;42.10;;;;;;5060321;28;20169;-11
2022/03/25 05:21:06;;;;;;;4.67;4.13;;;19.20;41.90;;;;;;5042780;28;20250;-11
2022/03/25 05:23:32;;;;;;;4.93;4.43;;;19.00;42.10;;;;;;5042335;28;20293;-11
2022/03/25 05:25:57;;;;;;;4.63;4.23;;;18.90;42.20;;;;;;5059798;28;20176;-11
2022/03/25 05:28:23;;;;;;;5.03;4.53;;;18.80;42.30;;;;;;5059521;28;20176;-11
2022/03/25 05:30:49;;;;;;;5.33;4.50;;;18.60;42.40;;;;;;5059776;28;20231;-11
2022/03/25 05:33:15;;;;;;;4.70;4.30;;;18.50;42.50;;;;;;5059544;28;20179;-11
2022/03/25 05:35:40;;;;;;;5.33;4.57;;;18.50;42.60;;;;;;5042412;28;20248;-11
2022/03/25 05:38:09;;;;;;;5.10;4.30;;;18.50;42.60;;;;;;5042479;28;20183;-11
2022/03/25 05:40:34;;;;;;;5.03;4.53;;;18.40;42.60;;;;;;5058855;28;20248;-11
2022/03/25 05:43:00;;;;;;;4.93;4.30;;;18.50;42.60;;;;;;5059155;28;20207;-11
2022/03/25 05:45:26;;;;;;;4.87;4.30;;;18.60;42.50;;;;;;5041109;28;20177;-11
2022/03/25 05:47:52;;;;;;;4.30;3.90;;;18.70;42.40;;;;;;5058656;28;20200;-11
2022/03/25 05:50:19;;;;;;;4.93;4.43;;;18.80;42.40;;;;;;5057967;28;20180;-11
2022/03/25 05:52:45;;;;;;;4.60;4.20;;;19.10;42.20;;;;;;5059129;28;20166;-11
2022/03/25 05:55:12;;;;;;;4.53;4.13;;;19.60;41.80;;;;;;5041167;28;20173;-11
2022/03/25 05:57:39;;;;;;;5.07;4.57;;;20.20;41.20;;;;;;5058997;28;20176;-11
2022/03/25 06:02:36;;;;;;;5.03;4.23;;;22.00;39.20;;;;;;5061971;22;20310;-11
2022/03/25 06:05:02;;;;;;;4.63;4.23;;;22.50;38.60;;;;;;5058655;28;20271;-11
2022/03/25 06:07:35;;;;;;;4.77;4.27;;;22.70;38.20;;;;;;5058332;28;20168;-11
2022/03/25 06:10:01;;;;;;;4.93;4.43;;;22.90;38.00;;;;;;5057726;28;20170;-12
2022/03/25 06:12:27;;;;;;;4.90;4.50;;;22.80;38.00;;;;;;5058111;28;20171;-12
2022/03/25 06:14:53;;;;;;;4.73;4.30;;;22.90;38.00;;;;;;5057840;28;20182;-12
2022/03/25 06:17:19;;;;;;;4.47;4.07;;;22.70;38.10;;;;;;5057638;28;20188;-12
2022/03/25 06:19:44;;;;;;;5.03;4.53;;;22.60;38.20;;;;;;5041059;28;20195;-12
2022/03/25 06:22:10;;;;;;;4.70;4.30;;;22.50;38.40;;;;;;5057512;28;20194;-12
2022/03/25 06:24:36;;;;;;;4.90;4.50;;;22.20;38.60;;;;;;5057254;28;20302;-12
2022/03/25 06:27:02;;;;;;;5.43;4.70;;;22.10;38.90;;;;;;5057285;28;20172;-12
2022/03/25 06:29:28;;;;;;;7.67;5.00;;;21.90;39.10;;;;;;5057292;28;20172;-12
2022/03/25 06:31:54;;;;;;;5.57;5.07;;;21.80;39.30;;;;;;5057033;28;20172;-12
2022/03/25 06:34:21;;;;;;;7.13;5.33;;;21.60;39.40;;;;;;5057090;28;20180;-12
2022/03/25 06:36:48;;;;;;;7.37;5.93;;;21.50;39.60;;;;;;5057584;28;20167;-12
2022/03/25 06:39:14;;;;;;;6.10;5.47;;;21.30;39.70;;;;;;5057624;28;20575;-12
2022/03/25 06:41:42;;;;;;;6.23;5.63;;;21.30;39.80;;;;;;5056686;28;20198;-12
2022/03/25 06:44:08;;;;;;;6.97;5.90;;;21.20;39.90;;;;;;5057502;28;20516;-12
2022/03/25 06:46:35;;;;;;;6.83;6.13;;;21.10;40.00;;;;;;5038673;28;20558;-12
2022/03/25 06:49:01;;;;;;;6.30;5.70;;;20.90;40.20;;;;;;5055545;28;20729;-12
2022/03/25 06:51:27;;;;;;;7.50;6.03;;;20.80;40.20;;;;;;5038558;28;20267;-12
2022/03/25 06:53:53;;;;;;;6.50;5.90;;;20.70;40.30;;;;;;5056219;28;20183;-12
2022/03/25 06:56:19;;;;;;;6.53;5.93;;;20.60;40.40;;;;;;5056263;28;20178;-12
2022/03/25 06:58:45;;;;;;;7.20;6.37;;;20.60;40.50;;;;;;5038585;28;20180;-12
2022/03/25 07:01:12;;;;;;;7.27;6.03;;;20.50;40.50;;;;;;5056285;28;20682;-12
2022/03/25 07:03:38;;;;;;;6.40;5.80;;;20.40;40.60;;;;;;5038889;28;20212;-12
2022/03/25 07:06:04;;;;;;;7.97;6.00;;;20.40;40.70;;;;;;5055808;28;20203;-12
2022/03/25 07:08:31;;;;;;;7.40;6.47;;;20.30;40.80;;;;;;5056112;28;20244;-12
2022/03/25 07:10:59;;;;;;;6.77;6.07;;;20.30;41.00;;;;;;5055920;28;20456;-12
2022/03/25 07:13:25;;;;;;;6.83;6.10;;;20.30;41.00;;;;;;5056233;28;20178;-12
2022/03/25 07:15:51;;;;;;;7.17;6.47;;;20.20;41.10;;;;;;5056062;28;20171;-12
2022/03/25 07:18:22;;;;;;;7.67;5.93;;;20.20;41.10;;;;;;5055761;28;20223;-12
2022/03/25 07:20:47;;;;;;;6.50;5.90;;;20.30;41.20;;;;;;5055562;28;20172;-12
2022/03/25 07:23:13;;;;;;;7.10;6.03;;;20.30;41.20;;;;;;5038131;28;20211;-12
2022/03/25 07:25:39;;;;;;;8.53;6.60;;;20.30;41.10;;;;;;5037667;28;20292;-12
2022/03/25 07:28:06;;;;;;;8.30;6.43;;;20.40;41.10;;;;;;5055838;28;20313;-12
2022/03/25 07:30:31;;;;;;;6.90;6.20;;;20.40;41.10;;;;;;5056050;28;20449;-12
2022/03/25 07:32:58;;;;;;;8.83;6.40;;;20.50;41.10;;;;;;5037568;28;20570;-12
2022/03/25 07:35:24;;;;;;;7.87;6.37;;;20.60;41.10;;;;;;5038644;28;20211;-12
2022/03/25 07:37:51;;;;;;;10.23;7.30;;;20.60;41.10;;;;;;5038651;28;20204;-12
2022/03/25 07:40:17;;;;;;;9.70;6.93;;;20.70;41.00;;;;;;5054713;28;20241;-12
2022/03/25 07:42:44;;;;;;;10.97;7.27;;;20.70;41.00;;;;;;5038122;28;20180;-12
2022/03/25 07:45:11;;;;;;;7.97;7.17;;;20.80;41.00;;;;;;5020685;28;20264;-12
2022/03/25 07:47:47;;;;;;;11.20;7.80;;;20.90;41.00;;;;;;5035587;28;20173;-12
2022/03/25 07:50:15;;;;;;;10.03;8.40;;;20.90;40.90;;;;;;5035482;28;20169;-12
2022/03/25 07:52:41;;;;;;;9.80;7.93;;;21.00;40.90;;;;;;5035358;28;20283;-12
2022/03/25 07:55:09;;;;;;;10.70;7.87;;;21.00;40.80;;;;;;5017344;28;20211;-12
2022/03/25 07:57:36;;;;;;;9.73;7.70;;;21.10;40.70;;;;;;5035890;28;20219;-12
2022/03/25 08:00:13;;;;;;;8.73;7.60;;;21.10;40.70;;;;;;5017967;28;20176;-12
2022/03/25 08:02:52;;;;;;;12.17;8.80;;;21.20;40.70;;;;;;5019462;28;20203;-12
2022/03/25 08:05:17;;;;;;;10.60;8.67;;;21.20;40.60;;;;;;5054670;28;20654;-12
2022/03/25 08:07:44;;;;;;;12.73;8.10;;;21.20;40.70;;;;;;5054607;28;20263;-13
2022/03/25 08:10:10;;;;;;;9.03;8.13;;;21.20;40.60;;;;;;5054560;28;20203;-12
2022/03/25 08:12:37;;;;;;;9.93;8.17;;;21.20;40.60;;;;;;5054307;28;20164;-13
2022/03/25 08:15:07;;;;;;;11.73;9.40;;;21.30;40.60;;;;;;5055265;28;20184;-13
2022/03/25 08:17:58;;;;;;;10.27;8.27;;;21.20;40.60;;;;;;5054035;28;20180;-13
2022/03/25 08:20:35;;;;;;;10.27;7.97;;;21.30;40.70;;;;;;5054883;28;20188;-13
2022/03/25 08:23:01;;;;;;;9.43;8.27;;;21.30;40.60;;;;;;5054574;28;20194;-13
2022/03/25 08:28:13;;;;;;;10.33;8.43;;;21.30;40.60;;;;;;5054924;28;20176;-13
2022/03/25 08:30:41;;;;;;;10.90;9.03;;;21.40;40.70;;;;;;5053212;28;20753;-13
2022/03/25 08:33:08;;;;;;;10.87;8.63;;;21.40;40.60;;;;;;5037473;28;20171;-13
2022/03/25 08:35:34;;;;;;;11.80;8.23;;;21.50;41.00;;;;;;5054252;28;20213;-13
2022/03/25 08:38:00;;;;;;;11.67;7.93;;;21.50;40.50;;;;;;5054522;28;20259;-13
2022/03/25 08:40:32;;;;;;;11.80;9.17;;;21.50;40.50;;;;;;5054868;28;20173;-13
2022/03/25 08:42:58;;;;;;;10.30;8.80;;;21.50;40.50;;;;;;5054600;28;20184;-13
2022/03/25 08:45:25;;;;;;;11.30;8.97;;;21.60;40.40;;;;;;5055446;28;20255;-13
2022/03/25 08:47:51;;;;;;;13.27;9.43;;;21.60;40.30;;;;;;5054726;28;20176;-13
2022/03/25 08:50:18;;;;;;;10.97;8.30;;;21.60;40.40;;;;;;5054489;28;20172;-13
2022/03/25 08:52:46;;;;;;;10.23;8.33;;;21.70;40.30;;;;;;5054304;28;20444;-13
2022/03/25 08:55:13;;;;;;;12.10;9.30;;;21.70;40.20;;;;;;5054192;28;20176;-13
2022/03/25 08:57:39;;;;;;;11.47;9.57;;;21.80;40.40;;;;;;5052481;28;20211;-13
2022/03/25 09:00:11;;;;;;;14.33;8.77;;;21.90;40.30;;;;;;5034682;28;20165;-13
2022/03/25 09:02:38;;;;;;;11.47;8.30;;;21.90;40.10;;;;;;5033824;28;20196;-13
2022/03/25 09:05:05;;;;;;;11.37;7.97;;;22.00;40.10;;;;;;5020085;28;20180;-13
2022/03/25 09:07:31;;;;;;;10.67;8.60;;;22.00;40.10;;;;;;5053938;28;20695;-13
2022/03/25 09:09:57;;;;;;;11.10;8.53;;;22.10;40.20;;;;;;5050734;28;20242;-13
2022/03/25 09:12:23;;;;;;;10.43;9.23;;;22.10;40.00;;;;;;5037165;28;20454;-13
2022/03/25 09:14:49;;;;;;;12.20;9.07;;;22.10;40.10;;;;;;5054456;28;20172;-13
2022/03/25 09:17:16;;;;;;;10.50;8.70;;;22.20;40.20;;;;;;5037545;28;20183;-13
2022/03/25 09:19:43;;;;;;;12.57;9.03;;;22.30;40.00;;;;;;5046331;28;20176;-13
2022/03/25 09:22:09;;;;;;;11.47;8.83;;;22.30;39.90;;;;;;5030814;28;20615;-13
2022/03/25 09:24:35;;;;;;;10.63;8.37;;;22.40;39.90;;;;;;5057809;28;20759;-13
2022/03/25 09:27:02;;;;;;;12.97;8.67;;;22.50;39.90;;;;;;5057102;28;20168;-13
2022/03/25 09:29:28;;;;;;;10.47;8.20;;;22.50;39.80;;;;;;5056261;28;20283;-13
2022/03/25 09:31:54;;;;;;;11.57;8.33;;;22.50;39.80;;;;;;5054369;28;20263;-13
2022/03/25 09:37:04;;;;;;;8.90;7.57;;;22.40;39.90;;;;;;5037498;28;20223;-13
2022/03/25 09:39:30;;;;;;;11.37;8.20;;;22.20;40.00;;;;;;5044441;28;20168;-13
2022/03/25 09:41:59;;;;;;;11.48;8.48;;;21.90;40.30;;;;;;5039795;28;20176;-13
2022/03/25 09:44:25;;;;;;;12.43;8.73;;;21.60;40.60;;;;;;5057080;28;20478;-13
2022/03/25 09:46:51;;;;;;;10.50;8.65;;;21.40;40.80;;;;;;5056969;28;20255;-13
2022/03/25 09:49:18;;;;;;;13.80;8.40;;;21.20;41.10;;;;;;5057398;28;20634;-13
2022/03/25 09:51:46;;;;;;;11.43;7.82;;;21.00;41.20;;;;;;5023355;28;20173;-13
2022/03/25 09:54:14;;;;;;;9.85;7.85;;;20.90;41.40;;;;;;5055021;28;20176;-13
2022/03/25 09:56:40;;;;;;;11.02;8.70;;;20.90;41.60;;;;;;5057341;28;20168;-13
2022/03/25 09:59:07;;;;;;;11.13;8.10;;;20.80;41.70;;;;;;5039508;28;20180;-13
2022/03/25 10:01:33;;;;;;;9.60;8.00;;;20.70;41.70;;;;;;5038220;28;20537;-14
2022/03/25 10:03:59;;;;;;;8.93;7.70;;;20.70;41.90;;;;;;5048802;28;20853;-13
2022/03/25 10:06:25;;;;;;;10.48;8.40;;;20.70;41.90;;;;;;5050435;28;20329;-13
2022/03/25 10:08:59;;;;;;;9.40;7.88;;;20.60;41.90;;;;;;5031996;28;20476;-13
2022/03/25 10:11:26;;;;;;;11.52;8.45;;;20.60;41.90;;;;;;5014846;28;20460;-13
2022/03/25 10:14:15;;;;;;;10.63;8.18;;;20.60;41.90;;;;;;5049399;28;20172;-13
2022/03/25 10:16:45;;;;;;;11.33;8.43;;;20.60;41.90;;;;;;5032093;28;20207;-14
2022/03/25 10:19:21;;;;;;;10.93;8.20;;;20.60;42.00;;;;;;5049121;28;20160;-13
2022/03/25 10:22:00;;;;;;;10.37;7.77;;;20.60;42.00;;;;;;5031320;28;20511;-13
2022/03/25 10:24:40;;;;;;;9.63;8.17;;;20.60;42.00;;;;;;5049950;28;20307;-13
2022/03/25 10:27:07;;;;;;;8.20;7.37;;;20.60;42.00;;;;;;5032237;28;20332;-13
2022/03/25 10:29:36;;;;;;;10.23;7.93;;;20.60;42.00;;;;;;5051218;28;20165;-13
2022/03/25 10:32:10;;;;;;;8.63;7.77;;;20.50;41.90;;;;;;5032350;28;20551;-13
2022/03/25 10:34:38;;;;;;;11.93;8.40;;;20.50;42.00;;;;;;5051107;28;20206;-13
2022/03/25 10:37:06;;;;;;;9.87;7.87;;;20.50;42.00;;;;;;5048646;28;20259;-13
2022/03/25 10:39:33;;;;;;;8.37;7.50;;;20.50;42.00;;;;;;5032237;28;20172;-13
2022/03/25 10:42:01;;;;;;;10.90;8.53;;;20.50;42.00;;;;;;5050801;28;20433;-13
2022/03/25 10:44:32;;;;;;;9.60;7.90;;;20.40;41.90;;;;;;5030964;28;20433;-13
2022/03/25 10:46:58;;;;;;;10.57;8.53;;;20.40;41.90;;;;;;5049237;28;20421;-13
2022/03/25 10:49:24;;;;;;;11.73;8.60;;;20.40;41.90;;;;;;5030151;28;20171;-13
2022/03/25 10:51:58;;;;;;;9.57;7.60;;;20.40;41.90;;;;;;5031981;28;20249;-13
2022/03/25 10:54:26;;;;;;;10.00;7.67;;;20.40;41.90;;;;;;5049305;28;20470;-13
2022/03/25 10:56:54;;;;;;;9.43;7.50;;;20.30;41.90;;;;;;5054944;28;20180;-12
2022/03/25 10:59:34;;;;;;;10.33;8.17;;;20.30;42.00;;;;;;5048571;28;20172;-12
2022/03/25 11:02:03;;;;;;;11.23;7.80;;;20.30;41.90;;;;;;5047368;28;20523;-12
2022/03/25 11:04:29;;;;;;;13.13;8.13;;;20.30;42.00;;;;;;5048516;28;20203;-12
2022/03/25 11:06:56;;;;;;;12.70;7.87;;;20.30;42.00;;;;;;5047239;28;20167;-12
2022/03/25 11:09:23;;;;;;;11.57;8.43;;;20.30;41.90;;;;;;5030028;28;20167;-12
2022/03/25 11:11:51;;;;;;;10.60;7.47;;;20.30;42.00;;;;;;5048440;28;20583;-12
2022/03/25 11:14:20;;;;;;;9.90;6.93;;;20.20;42.00;;;;;;5054061;28;20182;-12
2022/03/25 11:16:48;;;;;;;9.77;7.83;;;20.20;42.00;;;;;;5055085;28;20166;-12
2022/03/25 11:19:16;;;;;;;12.27;8.07;;;20.20;42.00;;;;;;5029181;28;20171;-12
2022/03/25 11:21:46;;;;;;;9.83;7.60;;;20.20;42.10;;;;;;5035832;28;20186;-12
2022/03/25 11:24:27;;;;;;;9.73;8.17;;;20.20;42.00;;;;;;5035465;28;20292;-12
2022/03/25 11:26:54;;;;;;;10.97;8.33;;;20.10;42.00;;;;;;5028667;28;20157;-12
2022/03/25 11:29:31;;;;;;;12.17;8.33;;;20.10;42.00;;;;;;5027927;28;20178;-12
2022/03/25 11:32:14;;;;;;;10.33;7.97;;;20.10;42.00;;;;;;5029599;28;20252;-12
2022/03/25 11:34:44;;;;;;;10.80;8.17;;;20.10;42.10;;;;;;5027937;28;20180;-12
2022/03/25 11:37:21;;;;;;;11.17;8.30;;;20.10;42.10;;;;;;5043434;28;20179;-12
2022/03/25 11:39:48;;;;;;;12.23;7.70;;;20.00;42.00;;;;;;5036858;28;20191;-12
2022/03/25 11:42:37;;;;;;;11.83;8.20;;;20.10;42.60;;;;;;5054121;28;20171;-12
2022/03/25 11:45:24;;;;;;;11.43;8.27;;;20.00;42.10;;;;;;5046943;28;20200;-12
2022/03/25 11:47:59;;;;;;;10.17;7.40;;;20.00;42.10;;;;;;5030534;28;20307;-12
2022/03/25 11:50:38;;;;;;;9.87;7.87;;;20.00;42.10;;;;;;5046360;28;20425;-12
2022/03/25 11:53:26;;;;;;;11.93;7.47;;;20.00;42.20;;;;;;5047230;28;20506;-12
2022/03/25 11:56:02;;;;;;;10.10;7.17;;;20.00;42.10;;;;;;5041054;28;20196;-12
2022/03/25 11:58:30;;;;;;;9.67;6.77;;;20.00;42.30;;;;;;5035588;28;20558;-12
2022/03/25 12:01:14;;;;;;;10.97;6.97;;;20.00;42.30;;;;;;5045309;28;20708;-12
2022/03/25 12:03:41;;;;;;;12.80;7.47;;;19.90;42.30;;;;;;5045189;28;21028;-12
2022/03/25 12:06:10;;;;;;;9.40;7.43;;;19.90;42.30;;;;;;5050827;28;20168;-12
2022/03/25 12:08:36;;;;;;;9.43;6.80;;;19.90;42.30;;;;;;5033022;28;20298;-12
2022/03/25 12:11:11;;;;;;;11.70;7.07;;;19.90;42.30;;;;;;5048588;28;20472;-12
2022/03/25 12:13:54;;;;;;;8.87;6.60;;;19.90;42.40;;;;;;5027832;28;20562;-12
2022/03/25 12:16:48;;;;;;;9.17;7.27;;;19.80;42.30;;;;;;5044470;28;20191;-12
2022/03/25 12:19:46;;;;;;;10.13;6.43;;;19.80;42.30;;;;;;5033593;28;20230;-12
2022/03/25 12:22:21;;;;;;;8.03;6.50;;;19.80;42.40;;;;;;5021927;28;20196;-12
2022/03/25 12:24:51;;;;;;;11.80;7.03;;;19.80;42.40;;;;;;5033414;28;20191;-13
2022/03/25 12:27:18;;;;;;;9.50;6.10;;;19.80;42.40;;;;;;5032229;28;20173;-12
2022/03/25 12:29:51;;;;;;;9.03;7.07;;;19.70;42.40;;;;;;5033968;28;20178;-12
2022/03/25 12:32:18;;;;;;;8.80;6.67;;;19.70;42.40;;;;;;5053004;28;20204;-12
2022/03/25 12:35:02;;;;;;;9.50;6.50;;;19.70;42.40;;;;;;5035829;28;20199;-12
2022/03/25 12:38:03;;;;;;;10.53;6.70;;;19.70;42.80;;;;;;5053624;28;20586;-12
2022/03/25 12:40:36;;;;;;;9.53;6.83;;;19.70;42.40;;;;;;5051318;28;20176;-12
2022/03/25 12:43:11;;;;;;;11.87;6.90;;;19.60;42.40;;;;;;5034932;28;20477;-12
2022/03/25 12:45:48;;;;;;;8.73;6.20;;;19.70;42.40;;;;;;5053542;28;20168;-12
2022/03/25 12:48:20;;;;;;;8.53;6.70;;;19.60;42.40;;;;;;5033301;28;20175;-12
2022/03/25 12:50:51;;;;;;;10.30;6.03;;;19.60;42.40;;;;;;5036183;28;20187;-12
2022/03/25 12:53:23;;;;;;;10.07;6.27;;;19.60;42.40;;;;;;5035417;28;20337;-12
2022/03/25 12:55:48;;;;;;;9.63;6.43;;;19.60;42.40;;;;;;5049686;28;20196;-12